Portada
METAR-TAF:

METAR-TAF

Aeroports :

Somerset Airport

Somerville, Nova Jersey, Estats Units d'Amèrica

latitud: 40-37-26N, longitud: 074-40-10W, altitud: 32 m

Observació

L'informe es va fer fa 50 minuts, a les 21:53 UTC
Vent 9 kt del Sud/Sud-Est
Temperatura 20°C
Humitat 60%
Pressió 1023 hPa
Visibilitat: 16.1 km
Escasses núvols a una alçada de 3500 ft

METAR: KSMQ 242153Z AUTO 16009KT 10SM FEW035 20/12 A3020 RMK AO2 SLP225 T02000122

Hora: 18:43 (22:43 UTC)


TAF: manca

Observacions i pronòstics meteorològics de més de 4000 aeroports (METAR i TAF).

Les estacions disponibles són els punts grocs i vermells al mapa.

Posi el ratolí al punt desitjat per veure el nom de l'estació.

Feu clic per veure les observacions i els pronòstics meteorològics.

Per canviar el mapa: feu clic els botons verds amb una creu de color negre per apropar; al botó verd amb un guió per allunyar la imatge; o en les fletxes verdes per a mapes adjacents.


METAR-TAF: